PABR METAR and TAF weather

Enter ICAO airport designator
Station Type Date Time Source
PABR METAR 2022/01/18 06:53 UTC NOAA

PABR 180653Z AUTO 33008KT 7SM OVC080 M23/M27 A3015 RMK AO2 SLP211 T12331272 TSNO $


Station Type Date Time Source
PABR Decoded METAR 2022/01/18 06:53 UTC NOAA

POST ROGERS MEMORIAL AIRPORT, AK, United States (PABR) 71-17N 156-46W 10M
Jan 18, 2022 - 01:53 AM EST / 2022.01.18 0653 UTC
Wind: from the NNW (330 degrees) at 9 MPH (8 KT):0
Visibility: 7 mile(s):0
Sky conditions: overcast
Temperature: -9.9 F (-23.3 C)
Windchill: -27 F (-33 C):2
Dew Point: -17.0 F (-27.2 C)
Relative Humidity: 70%
Pressure (altimeter): 30.15 in. Hg (1020 hPa)
ob: PABR 180653Z AUTO 33008KT 7SM OVC080 M23/M27 A3015 RMK AO2 SLP211 T12331272 TSNO
cycle: 7

Station Type Date Time Source
PABR TAF 2022/01/18 06:22 UTC NOAA

TAF PABR 180520Z 1806/1906 36010KT 4SM -SN OVC100
FM180900 30007KT P6SM -SN BKN050
FM181500 33007KT P6SM -SN OVC050

Example: see airport list